sensor_id;sensor_type;location;lat;lon;timestamp;P1;durP1;ratioP1;P2;durP2;ratioP2
13386;SDS011;6763;48.524;9.044;2022-11-15T00:00:51;3.00;;;2.05;;
13386;SDS011;6763;48.524;9.044;2022-11-15T00:03:19;3.22;;;1.48;;
13386;SDS011;6763;48.524;9.044;2022-11-15T00:05:48;4.32;;;1.92;;
13386;SDS011;6763;48.524;9.044;2022-11-15T00:08:14;5.68;;;1.45;;
13386;SDS011;6763;48.524;9.044;2022-11-15T00:10:39;1.40;;;1.30;;
13386;SDS011;6763;48.524;9.044;2022-11-15T00:13:08;2.17;;;1.52;;
13386;SDS011;6763;48.524;9.044;2022-11-15T00:15:39;2.35;;;1.50;;
13386;SDS011;6763;48.524;9.044;2022-11-15T00:18:05;3.03;;;1.55;;
13386;SDS011;6763;48.524;9.044;2022-11-15T00:20:35;3.35;;;1.60;;
13386;SDS011;6763;48.524;9.044;2022-11-15T00:23:00;2.53;;;1.60;;
13386;SDS011;6763;48.524;9.044;2022-11-15T00:25:28;2.92;;;1.60;;
13386;SDS011;6763;48.524;9.044;2022-11-15T00:27:57;1.77;;;1.42;;
13386;SDS011;6763;48.524;9.044;2022-11-15T00:30:23;1.52;;;1.40;;
13386;SDS011;6763;48.524;9.044;2022-11-15T00:32:49;1.85;;;1.35;;
13386;SDS011;6763;48.524;9.044;2022-11-15T00:35:14;1.33;;;1.23;;
13386;SDS011;6763;48.524;9.044;2022-11-15T00:37:40;3.45;;;1.60;;
13386;SDS011;6763;48.524;9.044;2022-11-15T00:40:05;1.38;;;1.25;;
13386;SDS011;6763;48.524;9.044;2022-11-15T00:42:31;2.42;;;1.17;;
13386;SDS011;6763;48.524;9.044;2022-11-15T00:44:56;1.45;;;1.30;;
13386;SDS011;6763;48.524;9.044;2022-11-15T00:47:22;2.03;;;1.23;;
13386;SDS011;6763;48.524;9.044;2022-11-15T00:49:47;1.13;;;1.02;;
13386;SDS011;6763;48.524;9.044;2022-11-15T00:52:13;0.88;;;0.88;;
13386;SDS011;6763;48.524;9.044;2022-11-15T00:54:38;5.18;;;1.50;;
13386;SDS011;6763;48.524;9.044;2022-11-15T00:57:03;1.45;;;1.35;;
13386;SDS011;6763;48.524;9.044;2022-11-15T00:59:29;2.10;;;1.42;;
13386;SDS011;6763;48.524;9.044;2022-11-15T01:01:54;2.08;;;1.10;;
13386;SDS011;6763;48.524;9.044;2022-11-15T01:04:22;2.65;;;1.95;;
13386;SDS011;6763;48.524;9.044;2022-11-15T01:06:47;1.23;;;1.15;;
13386;SDS011;6763;48.524;9.044;2022-11-15T01:09:13;1.05;;;0.98;;
13386;SDS011;6763;48.524;9.044;2022-11-15T01:11:39;1.52;;;1.40;;
13386;SDS011;6763;48.524;9.044;2022-11-15T01:14:04;0.98;;;0.93;;
13386;SDS011;6763;48.524;9.044;2022-11-15T01:16:29;1.40;;;1.30;;
13386;SDS011;6763;48.524;9.044;2022-11-15T01:18:55;1.25;;;1.15;;
13386;SDS011;6763;48.524;9.044;2022-11-15T01:21:20;2.28;;;1.50;;
13386;SDS011;6763;48.524;9.044;2022-11-15T01:23:45;1.60;;;1.48;;
13386;SDS011;6763;48.524;9.044;2022-11-15T01:26:13;2.38;;;1.63;;
13386;SDS011;6763;48.524;9.044;2022-11-15T01:28:40;1.73;;;1.48;;
13386;SDS011;6763;48.524;9.044;2022-11-15T01:31:09;1.38;;;1.08;;
13386;SDS011;6763;48.524;9.044;2022-11-15T01:33:38;1.65;;;1.35;;
13386;SDS011;6763;48.524;9.044;2022-11-15T01:36:07;2.40;;;1.35;;
13386;SDS011;6763;48.524;9.044;2022-11-15T01:38:35;1.42;;;1.33;;
13386;SDS011;6763;48.524;9.044;2022-11-15T01:41:00;2.22;;;1.50;;
13386;SDS011;6763;48.524;9.044;2022-11-15T01:43:31;2.30;;;1.50;;
13386;SDS011;6763;48.524;9.044;2022-11-15T01:46:02;2.97;;;1.80;;
13386;SDS011;6763;48.524;9.044;2022-11-15T01:48:33;3.22;;;2.00;;
13386;SDS011;6763;48.524;9.044;2022-11-15T01:51:00;9.55;;;2.03;;
13386;SDS011;6763;48.524;9.044;2022-11-15T01:53:32;4.55;;;1.77;;
13386;SDS011;6763;48.524;9.044;2022-11-15T01:55:59;1.63;;;1.30;;
13386;SDS011;6763;48.524;9.044;2022-11-15T01:58:29;3.60;;;2.03;;
13386;SDS011;6763;48.524;9.044;2022-11-15T02:00:54;2.78;;;2.17;;
13386;SDS011;6763;48.524;9.044;2022-11-15T02:03:20;2.95;;;1.75;;
13386;SDS011;6763;48.524;9.044;2022-11-15T02:05:51;1.60;;;1.50;;
13386;SDS011;6763;48.524;9.044;2022-11-15T02:08:18;2.20;;;1.70;;
13386;SDS011;6763;48.524;9.044;2022-11-15T02:10:49;2.28;;;1.98;;
13386;SDS011;6763;48.524;9.044;2022-11-15T02:13:15;2.20;;;1.40;;
13386;SDS011;6763;48.524;9.044;2022-11-15T02:18:46;3.95;;;1.60;;
13386;SDS011;6763;48.524;9.044;2022-11-15T02:21:24;5.32;;;2.15;;
13386;SDS011;6763;48.524;9.044;2022-11-15T02:24:15;2.85;;;1.92;;
13386;SDS011;6763;48.524;9.044;2022-11-15T02:38:06;2.28;;;1.70;;
13386;SDS011;6763;48.524;9.044;2022-11-15T02:40:57;4.80;;;1.70;;
13386;SDS011;6763;48.524;9.044;2022-11-15T02:43:33;3.40;;;1.80;;
13386;SDS011;6763;48.524;9.044;2022-11-15T02:49:12;3.58;;;2.08;;
13386;SDS011;6763;48.524;9.044;2022-11-15T02:51:39;1.65;;;1.42;;
13386;SDS011;6763;48.524;9.044;2022-11-15T02:54:10;7.88;;;1.80;;
13386;SDS011;6763;48.524;9.044;2022-11-15T02:56:39;3.30;;;1.58;;
13386;SDS011;6763;48.524;9.044;2022-11-15T03:08:12;2.75;;;1.98;;
13386;SDS011;6763;48.524;9.044;2022-11-15T03:16:55;2.58;;;1.80;;
13386;SDS011;6763;48.524;9.044;2022-11-15T03:22:01;1.73;;;1.30;;
13386;SDS011;6763;48.524;9.044;2022-11-15T03:24:30;2.42;;;1.63;;
13386;SDS011;6763;48.524;9.044;2022-11-15T03:26:59;1.88;;;1.77;;
13386;SDS011;6763;48.524;9.044;2022-11-15T03:29:27;1.95;;;1.50;;
13386;SDS011;6763;48.524;9.044;2022-11-15T03:32:06;1.58;;;1.35;;
13386;SDS011;6763;48.524;9.044;2022-11-15T03:34:37;2.13;;;1.75;;
13386;SDS011;6763;48.524;9.044;2022-11-15T03:37:03;3.72;;;1.52;;
13386;SDS011;6763;48.524;9.044;2022-11-15T03:39:29;2.00;;;1.80;;
13386;SDS011;6763;48.524;9.044;2022-11-15T03:44:51;1.92;;;1.48;;
13386;SDS011;6763;48.524;9.044;2022-11-15T03:47:25;1.73;;;1.63;;
13386;SDS011;6763;48.524;9.044;2022-11-15T03:49:52;1.30;;;1.20;;
13386;SDS011;6763;48.524;9.044;2022-11-15T03:52:22;2.92;;;1.88;;
13386;SDS011;6763;48.524;9.044;2022-11-15T03:54:52;3.05;;;1.15;;
13386;SDS011;6763;48.524;9.044;2022-11-15T03:57:19;2.08;;;1.40;;
13386;SDS011;6763;48.524;9.044;2022-11-15T03:59:45;1.17;;;1.08;;
13386;SDS011;6763;48.524;9.044;2022-11-15T04:02:13;5.05;;;1.58;;
13386;SDS011;6763;48.524;9.044;2022-11-15T04:04:39;2.35;;;1.77;;
13386;SDS011;6763;48.524;9.044;2022-11-15T04:07:04;2.17;;;1.42;;
13386;SDS011;6763;48.524;9.044;2022-11-15T04:09:30;2.40;;;1.65;;
13386;SDS011;6763;48.524;9.044;2022-11-15T04:11:55;1.67;;;1.58;;
13386;SDS011;6763;48.524;9.044;2022-11-15T04:14:22;2.00;;;1.38;;
13386;SDS011;6763;48.524;9.044;2022-11-15T04:16:47;1.92;;;1.25;;
13386;SDS011;6763;48.524;9.044;2022-11-15T04:19:12;1.50;;;1.30;;
13386;SDS011;6763;48.524;9.044;2022-11-15T04:21:56;2.45;;;1.45;;
13386;SDS011;6763;48.524;9.044;2022-11-15T04:24:40;2.05;;;1.55;;
13386;SDS011;6763;48.524;9.044;2022-11-15T04:27:05;1.90;;;1.67;;
13386;SDS011;6763;48.524;9.044;2022-11-15T04:29:31;2.13;;;1.92;;
13386;SDS011;6763;48.524;9.044;2022-11-15T04:31:59;1.65;;;1.55;;
13386;SDS011;6763;48.524;9.044;2022-11-15T04:34:29;2.53;;;1.67;;
13386;SDS011;6763;48.524;9.044;2022-11-15T04:36:54;1.75;;;1.40;;
13386;SDS011;6763;48.524;9.044;2022-11-15T04:39:41;1.40;;;1.30;;
13386;SDS011;6763;48.524;9.044;2022-11-15T04:42:08;1.05;;;1.05;;
13386;SDS011;6763;48.524;9.044;2022-11-15T04:44:33;2.35;;;1.70;;
13386;SDS011;6763;48.524;9.044;2022-11-15T04:46:59;1.85;;;1.60;;
13386;SDS011;6763;48.524;9.044;2022-11-15T04:49:25;2.05;;;1.88;;
13386;SDS011;6763;48.524;9.044;2022-11-15T04:51:50;2.90;;;1.90;;
13386;SDS011;6763;48.524;9.044;2022-11-15T04:54:15;1.73;;;1.23;;
13386;SDS011;6763;48.524;9.044;2022-11-15T04:56:41;1.92;;;1.75;;
13386;SDS011;6763;48.524;9.044;2022-11-15T04:59:07;2.45;;;1.45;;
13386;SDS011;6763;48.524;9.044;2022-11-15T05:01:32;3.50;;;1.45;;
13386;SDS011;6763;48.524;9.044;2022-11-15T05:03:57;2.75;;;1.98;;
13386;SDS011;6763;48.524;9.044;2022-11-15T05:06:41;1.60;;;1.50;;
13386;SDS011;6763;48.524;9.044;2022-11-15T05:09:07;2.85;;;1.90;;
13386;SDS011;6763;48.524;9.044;2022-11-15T05:11:32;3.08;;;2.10;;
13386;SDS011;6763;48.524;9.044;2022-11-15T05:13:57;2.00;;;1.70;;
13386;SDS011;6763;48.524;9.044;2022-11-15T05:16:23;2.45;;;2.25;;
13386;SDS011;6763;48.524;9.044;2022-11-15T05:18:51;1.70;;;1.60;;
13386;SDS011;6763;48.524;9.044;2022-11-15T05:21:19;1.90;;;1.40;;
13386;SDS011;6763;48.524;9.044;2022-11-15T05:23:45;3.92;;;1.73;;
13386;SDS011;6763;48.524;9.044;2022-11-15T05:26:11;2.70;;;1.95;;
13386;SDS011;6763;48.524;9.044;2022-11-15T05:28:37;2.08;;;1.80;;
13386;SDS011;6763;48.524;9.044;2022-11-15T05:31:03;1.90;;;1.33;;
13386;SDS011;6763;48.524;9.044;2022-11-15T05:33:30;1.92;;;1.48;;
13386;SDS011;6763;48.524;9.044;2022-11-15T05:36:04;2.45;;;2.00;;
13386;SDS011;6763;48.524;9.044;2022-11-15T05:38:34;2.58;;;1.83;;
13386;SDS011;6763;48.524;9.044;2022-11-15T05:41:00;3.83;;;1.92;;
13386;SDS011;6763;48.524;9.044;2022-11-15T05:43:26;2.38;;;2.15;;
13386;SDS011;6763;48.524;9.044;2022-11-15T05:45:54;2.78;;;1.92;;
13386;SDS011;6763;48.524;9.044;2022-11-15T05:48:19;2.78;;;2.17;;
13386;SDS011;6763;48.524;9.044;2022-11-15T05:50:45;2.50;;;1.80;;
13386;SDS011;6763;48.524;9.044;2022-11-15T05:53:13;1.27;;;1.10;;
13386;SDS011;6763;48.524;9.044;2022-11-15T05:55:41;2.47;;;2.00;;
13386;SDS011;6763;48.524;9.044;2022-11-15T05:58:06;2.13;;;1.92;;
13386;SDS011;6763;48.524;9.044;2022-11-15T06:00:32;3.28;;;2.30;;
13386;SDS011;6763;48.524;9.044;2022-11-15T06:02:58;4.40;;;2.40;;
13386;SDS011;6763;48.524;9.044;2022-11-15T06:05:23;4.07;;;2.28;;
13386;SDS011;6763;48.524;9.044;2022-11-15T06:07:49;2.13;;;1.90;;
13386;SDS011;6763;48.524;9.044;2022-11-15T06:10:14;3.70;;;2.03;;
13386;SDS011;6763;48.524;9.044;2022-11-15T06:12:39;6.28;;;2.38;;
13386;SDS011;6763;48.524;9.044;2022-11-15T06:15:05;2.10;;;1.90;;
13386;SDS011;6763;48.524;9.044;2022-11-15T06:17:30;2.10;;;1.90;;
13386;SDS011;6763;48.524;9.044;2022-11-15T06:19:56;2.15;;;1.95;;
13386;SDS011;6763;48.524;9.044;2022-11-15T06:22:21;2.13;;;1.85;;
13386;SDS011;6763;48.524;9.044;2022-11-15T06:24:46;3.63;;;2.38;;
13386;SDS011;6763;48.524;9.044;2022-11-15T06:27:12;2.53;;;1.85;;
13386;SDS011;6763;48.524;9.044;2022-11-15T06:29:37;3.17;;;2.00;;
13386;SDS011;6763;48.524;9.044;2022-11-15T06:32:03;2.33;;;2.00;;
13386;SDS011;6763;48.524;9.044;2022-11-15T06:34:28;2.65;;;2.20;;
13386;SDS011;6763;48.524;9.044;2022-11-15T06:36:54;2.47;;;2.08;;
13386;SDS011;6763;48.524;9.044;2022-11-15T06:39:19;2.72;;;2.45;;
13386;SDS011;6763;48.524;9.044;2022-11-15T06:41:45;2.72;;;2.25;;
13386;SDS011;6763;48.524;9.044;2022-11-15T06:44:13;2.97;;;2.38;;
13386;SDS011;6763;48.524;9.044;2022-11-15T06:46:39;2.42;;;2.00;;
13386;SDS011;6763;48.524;9.044;2022-11-15T06:49:04;2.53;;;2.00;;
13386;SDS011;6763;48.524;9.044;2022-11-15T06:51:29;2.47;;;2.15;;
13386;SDS011;6763;48.524;9.044;2022-11-15T06:53:55;2.30;;;2.10;;
13386;SDS011;6763;48.524;9.044;2022-11-15T06:56:20;1.83;;;1.70;;
13386;SDS011;6763;48.524;9.044;2022-11-15T06:58:45;2.40;;;1.95;;
13386;SDS011;6763;48.524;9.044;2022-11-15T07:01:11;4.50;;;2.17;;
13386;SDS011;6763;48.524;9.044;2022-11-15T07:03:37;2.75;;;2.15;;
13386;SDS011;6763;48.524;9.044;2022-11-15T07:06:05;3.53;;;2.63;;
13386;SDS011;6763;48.524;9.044;2022-11-15T07:08:31;5.05;;;2.75;;
13386;SDS011;6763;48.524;9.044;2022-11-15T07:11:01;5.47;;;3.05;;
13386;SDS011;6763;48.524;9.044;2022-11-15T07:13:29;2.80;;;1.95;;
13386;SDS011;6763;48.524;9.044;2022-11-15T07:15:58;12.63;;;2.45;;
13386;SDS011;6763;48.524;9.044;2022-11-15T07:18:26;2.17;;;1.98;;
13386;SDS011;6763;48.524;9.044;2022-11-15T07:20:52;3.70;;;2.40;;
13386;SDS011;6763;48.524;9.044;2022-11-15T07:23:17;2.30;;;1.70;;
13386;SDS011;6763;48.524;9.044;2022-11-15T07:25:43;1.83;;;1.70;;
13386;SDS011;6763;48.524;9.044;2022-11-15T07:28:08;1.65;;;1.52;;
13386;SDS011;6763;48.524;9.044;2022-11-15T07:30:33;1.60;;;1.42;;
13386;SDS011;6763;48.524;9.044;2022-11-15T07:32:59;2.13;;;1.73;;
13386;SDS011;6763;48.524;9.044;2022-11-15T07:35:26;3.88;;;2.30;;
13386;SDS011;6763;48.524;9.044;2022-11-15T07:37:52;5.53;;;1.98;;
13386;SDS011;6763;48.524;9.044;2022-11-15T07:40:19;2.15;;;1.95;;
13386;SDS011;6763;48.524;9.044;2022-11-15T07:42:44;2.90;;;2.05;;
13386;SDS011;6763;48.524;9.044;2022-11-15T07:45:22;2.38;;;1.77;;
13386;SDS011;6763;48.524;9.044;2022-11-15T07:47:50;1.77;;;1.67;;
13386;SDS011;6763;48.524;9.044;2022-11-15T07:50:16;2.00;;;1.75;;
13386;SDS011;6763;48.524;9.044;2022-11-15T07:52:42;2.47;;;2.17;;
13386;SDS011;6763;48.524;9.044;2022-11-15T07:55:08;3.85;;;2.05;;
13386;SDS011;6763;48.524;9.044;2022-11-15T07:57:34;2.80;;;2.10;;
13386;SDS011;6763;48.524;9.044;2022-11-15T08:00:00;2.60;;;1.92;;
13386;SDS011;6763;48.524;9.044;2022-11-15T08:02:26;3.20;;;1.80;;
13386;SDS011;6763;48.524;9.044;2022-11-15T08:04:51;3.35;;;2.72;;
13386;SDS011;6763;48.524;9.044;2022-11-15T08:07:17;3.97;;;2.55;;
13386;SDS011;6763;48.524;9.044;2022-11-15T08:09:44;3.63;;;2.17;;
13386;SDS011;6763;48.524;9.044;2022-11-15T08:12:10;3.00;;;1.90;;
13386;SDS011;6763;48.524;9.044;2022-11-15T08:14:35;4.30;;;2.75;;
13386;SDS011;6763;48.524;9.044;2022-11-15T08:17:00;2.42;;;2.20;;
13386;SDS011;6763;48.524;9.044;2022-11-15T08:19:26;2.08;;;1.85;;
13386;SDS011;6763;48.524;9.044;2022-11-15T08:21:51;3.25;;;2.30;;
13386;SDS011;6763;48.524;9.044;2022-11-15T08:24:17;3.97;;;2.67;;
13386;SDS011;6763;48.524;9.044;2022-11-15T08:26:42;2.60;;;2.40;;
13386;SDS011;6763;48.524;9.044;2022-11-15T08:29:07;2.95;;;2.13;;
13386;SDS011;6763;48.524;9.044;2022-11-15T08:31:33;5.07;;;2.17;;
13386;SDS011;6763;48.524;9.044;2022-11-15T08:34:01;2.42;;;2.22;;
13386;SDS011;6763;48.524;9.044;2022-11-15T08:36:27;6.22;;;2.30;;
13386;SDS011;6763;48.524;9.044;2022-11-15T08:38:52;2.53;;;2.03;;
13386;SDS011;6763;48.524;9.044;2022-11-15T08:41:34;2.63;;;2.00;;
13386;SDS011;6763;48.524;9.044;2022-11-15T08:44:01;3.25;;;2.08;;
13386;SDS011;6763;48.524;9.044;2022-11-15T08:46:27;2.22;;;1.95;;
13386;SDS011;6763;48.524;9.044;2022-11-15T08:48:52;3.45;;;1.55;;
13386;SDS011;6763;48.524;9.044;2022-11-15T08:51:17;3.88;;;2.00;;
13386;SDS011;6763;48.524;9.044;2022-11-15T08:53:43;1.75;;;1.65;;
13386;SDS011;6763;48.524;9.044;2022-11-15T08:56:09;2.00;;;1.80;;
13386;SDS011;6763;48.524;9.044;2022-11-15T08:58:35;6.30;;;2.20;;
13386;SDS011;6763;48.524;9.044;2022-11-15T09:01:01;4.40;;;2.08;;
13386;SDS011;6763;48.524;9.044;2022-11-15T09:03:27;3.25;;;2.10;;
13386;SDS011;6763;48.524;9.044;2022-11-15T09:05:57;3.55;;;2.08;;
13386;SDS011;6763;48.524;9.044;2022-11-15T09:08:23;3.05;;;2.13;;
13386;SDS011;6763;48.524;9.044;2022-11-15T09:10:50;2.60;;;2.40;;
13386;SDS011;6763;48.524;9.044;2022-11-15T09:13:15;4.60;;;3.10;;
13386;SDS011;6763;48.524;9.044;2022-11-15T09:15:41;2.78;;;2.10;;
13386;SDS011;6763;48.524;9.044;2022-11-15T09:18:06;3.80;;;1.90;;
13386;SDS011;6763;48.524;9.044;2022-11-15T09:20:32;2.92;;;2.22;;
13386;SDS011;6763;48.524;9.044;2022-11-15T09:23:01;4.20;;;2.78;;
13386;SDS011;6763;48.524;9.044;2022-11-15T09:25:27;2.75;;;2.10;;
13386;SDS011;6763;48.524;9.044;2022-11-15T09:27:53;4.68;;;3.50;;
13386;SDS011;6763;48.524;9.044;2022-11-15T09:30:18;6.53;;;2.65;;
13386;SDS011;6763;48.524;9.044;2022-11-15T09:32:44;6.72;;;3.65;;
13386;SDS011;6763;48.524;9.044;2022-11-15T09:35:09;2.28;;;1.90;;
13386;SDS011;6763;48.524;9.044;2022-11-15T09:37:34;7.10;;;2.25;;
13386;SDS011;6763;48.524;9.044;2022-11-15T09:40:00;1.95;;;1.83;;
13386;SDS011;6763;48.524;9.044;2022-11-15T09:50:50;4.78;;;2.38;;
13386;SDS011;6763;48.524;9.044;2022-11-15T09:56:01;3.85;;;1.90;;
13386;SDS011;6763;48.524;9.044;2022-11-15T10:01:41;1.85;;;1.67;;
13386;SDS011;6763;48.524;9.044;2022-11-15T10:04:16;5.15;;;2.40;;
13386;SDS011;6763;48.524;9.044;2022-11-15T10:06:43;4.28;;;2.25;;
13386;SDS011;6763;48.524;9.044;2022-11-15T10:09:36;2.75;;;2.15;;
13386;SDS011;6763;48.524;9.044;2022-11-15T10:12:23;3.85;;;2.63;;
13386;SDS011;6763;48.524;9.044;2022-11-15T10:14:50;3.45;;;1.90;;
13386;SDS011;6763;48.524;9.044;2022-11-15T10:17:48;3.30;;;2.58;;
13386;SDS011;6763;48.524;9.044;2022-11-15T10:20:47;2.55;;;2.05;;
13386;SDS011;6763;48.524;9.044;2022-11-15T10:23:13;2.58;;;2.05;;
13386;SDS011;6763;48.524;9.044;2022-11-15T10:25:41;3.63;;;2.00;;
13386;SDS011;6763;48.524;9.044;2022-11-15T10:30:39;3.83;;;2.60;;
13386;SDS011;6763;48.524;9.044;2022-11-15T10:35:44;3.45;;;2.50;;
13386;SDS011;6763;48.524;9.044;2022-11-15T10:38:12;2.30;;;2.10;;
13386;SDS011;6763;48.524;9.044;2022-11-15T10:40:38;3.85;;;2.88;;
13386;SDS011;6763;48.524;9.044;2022-11-15T10:43:13;2.85;;;2.08;;
13386;SDS011;6763;48.524;9.044;2022-11-15T10:45:40;6.72;;;2.22;;
13386;SDS011;6763;48.524;9.044;2022-11-15T10:50:42;4.15;;;2.35;;
13386;SDS011;6763;48.524;9.044;2022-11-15T10:55:48;2.85;;;1.95;;
13386;SDS011;6763;48.524;9.044;2022-11-15T10:58:57;2.55;;;2.03;;
13386;SDS011;6763;48.524;9.044;2022-11-15T11:03:42;2.38;;;1.52;;
13386;SDS011;6763;48.524;9.044;2022-11-15T11:06:10;3.08;;;2.03;;
13386;SDS011;6763;48.524;9.044;2022-11-15T11:08:36;2.05;;;1.80;;
13386;SDS011;6763;48.524;9.044;2022-11-15T11:11:03;1.50;;;1.40;;
13386;SDS011;6763;48.524;9.044;2022-11-15T11:13:30;2.35;;;1.55;;
13386;SDS011;6763;48.524;9.044;2022-11-15T11:15:59;2.40;;;1.77;;
13386;SDS011;6763;48.524;9.044;2022-11-15T11:19:04;2.58;;;1.73;;
13386;SDS011;6763;48.524;9.044;2022-11-15T11:21:23;2.38;;;1.65;;
13386;SDS011;6763;48.524;9.044;2022-11-15T11:23:59;2.08;;;1.42;;
13386;SDS011;6763;48.524;9.044;2022-11-15T11:38:03;3.55;;;1.98;;
13386;SDS011;6763;48.524;9.044;2022-11-15T11:40:57;2.80;;;1.92;;
13386;SDS011;6763;48.524;9.044;2022-11-15T11:46:24;1.42;;;1.33;;
13386;SDS011;6763;48.524;9.044;2022-11-15T11:48:53;1.83;;;1.65;;
13386;SDS011;6763;48.524;9.044;2022-11-15T11:54:16;2.00;;;1.58;;
13386;SDS011;6763;48.524;9.044;2022-11-15T11:57:12;3.05;;;2.13;;
13386;SDS011;6763;48.524;9.044;2022-11-15T11:59:43;2.30;;;1.63;;
13386;SDS011;6763;48.524;9.044;2022-11-15T12:02:47;3.67;;;1.73;;
13386;SDS011;6763;48.524;9.044;2022-11-15T12:05:29;2.08;;;1.40;;
13386;SDS011;6763;48.524;9.044;2022-11-15T12:08:15;2.58;;;1.55;;
13386;SDS011;6763;48.524;9.044;2022-11-15T12:11:15;2.72;;;1.50;;
13386;SDS011;6763;48.524;9.044;2022-11-15T12:13:46;2.30;;;1.70;;
13386;SDS011;6763;48.524;9.044;2022-11-15T12:16:22;1.58;;;1.25;;
13386;SDS011;6763;48.524;9.044;2022-11-15T12:18:54;2.22;;;1.50;;
13386;SDS011;6763;48.524;9.044;2022-11-15T12:24:13;2.22;;;1.65;;
13386;SDS011;6763;48.524;9.044;2022-11-15T12:26:46;1.50;;;1.40;;
13386;SDS011;6763;48.524;9.044;2022-11-15T12:29:35;1.75;;;1.33;;
13386;SDS011;6763;48.524;9.044;2022-11-15T12:32:04;1.70;;;1.50;;
13386;SDS011;6763;48.524;9.044;2022-11-15T12:34:37;2.10;;;1.55;;
13386;SDS011;6763;48.524;9.044;2022-11-15T12:44:57;2.22;;;1.52;;
13386;SDS011;6763;48.524;9.044;2022-11-15T12:47:24;5.68;;;1.65;;
13386;SDS011;6763;48.524;9.044;2022-11-15T12:49:51;2.15;;;1.50;;
13386;SDS011;6763;48.524;9.044;2022-11-15T12:52:17;4.25;;;1.60;;
13386;SDS011;6763;48.524;9.044;2022-11-15T12:54:50;1.92;;;1.55;;
13386;SDS011;6763;48.524;9.044;2022-11-15T12:57:23;2.22;;;2.03;;
13386;SDS011;6763;48.524;9.044;2022-11-15T13:02:41;1.67;;;1.50;;
13386;SDS011;6763;48.524;9.044;2022-11-15T13:17:50;3.80;;;1.80;;
13386;SDS011;6763;48.524;9.044;2022-11-15T13:23:00;2.47;;;2.08;;
13386;SDS011;6763;48.524;9.044;2022-11-15T13:28:11;2.40;;;1.80;;
13386;SDS011;6763;48.524;9.044;2022-11-15T13:30:55;3.55;;;2.22;;
13386;SDS011;6763;48.524;9.044;2022-11-15T13:33:36;2.15;;;1.83;;
13386;SDS011;6763;48.524;9.044;2022-11-15T13:36:05;2.15;;;1.67;;
13386;SDS011;6763;48.524;9.044;2022-11-15T13:38:34;2.85;;;2.03;;
13386;SDS011;6763;48.524;9.044;2022-11-15T13:41:14;2.80;;;2.05;;
13386;SDS011;6763;48.524;9.044;2022-11-15T13:43:45;1.75;;;1.63;;
13386;SDS011;6763;48.524;9.044;2022-11-15T13:48:44;2.13;;;1.92;;
13386;SDS011;6763;48.524;9.044;2022-11-15T13:53:54;3.08;;;1.98;;
13386;SDS011;6763;48.524;9.044;2022-11-15T13:56:42;2.17;;;1.55;;
13386;SDS011;6763;48.524;9.044;2022-11-15T13:59:13;1.95;;;1.50;;
13386;SDS011;6763;48.524;9.044;2022-11-15T14:01:44;1.88;;;1.60;;
13386;SDS011;6763;48.524;9.044;2022-11-15T14:04:11;1.77;;;1.38;;
13386;SDS011;6763;48.524;9.044;2022-11-15T14:06:44;2.08;;;1.70;;
13386;SDS011;6763;48.524;9.044;2022-11-15T14:11:36;4.15;;;1.83;;
13386;SDS011;6763;48.524;9.044;2022-11-15T14:16:35;2.20;;;1.77;;
13386;SDS011;6763;48.524;9.044;2022-11-15T14:19:05;2.25;;;2.05;;
13386;SDS011;6763;48.524;9.044;2022-11-15T14:21:34;2.78;;;2.00;;
13386;SDS011;6763;48.524;9.044;2022-11-15T14:24:16;8.27;;;3.17;;
13386;SDS011;6763;48.524;9.044;2022-11-15T14:26:43;3.08;;;2.13;;
13386;SDS011;6763;48.524;9.044;2022-11-15T14:29:28;2.95;;;2.10;;
13386;SDS011;6763;48.524;9.044;2022-11-15T14:32:05;2.67;;;1.70;;
13386;SDS011;6763;48.524;9.044;2022-11-15T14:34:40;3.60;;;2.40;;
13386;SDS011;6763;48.524;9.044;2022-11-15T14:37:16;4.30;;;2.28;;
13386;SDS011;6763;48.524;9.044;2022-11-15T14:39:47;4.85;;;2.45;;
13386;SDS011;6763;48.524;9.044;2022-11-15T14:42:13;3.67;;;2.42;;
13386;SDS011;6763;48.524;9.044;2022-11-15T14:44:38;6.80;;;2.70;;
13386;SDS011;6763;48.524;9.044;2022-11-15T14:47:03;2.65;;;2.00;;
13386;SDS011;6763;48.524;9.044;2022-11-15T14:49:29;3.28;;;2.47;;
13386;SDS011;6763;48.524;9.044;2022-11-15T14:51:54;3.17;;;2.60;;
13386;SDS011;6763;48.524;9.044;2022-11-15T14:54:20;4.70;;;3.10;;
13386;SDS011;6763;48.524;9.044;2022-11-15T14:56:45;5.05;;;2.83;;
13386;SDS011;6763;48.524;9.044;2022-11-15T14:59:10;5.90;;;2.55;;
13386;SDS011;6763;48.524;9.044;2022-11-15T15:01:35;3.40;;;2.38;;
13386;SDS011;6763;48.524;9.044;2022-11-15T15:04:01;9.60;;;2.25;;
13386;SDS011;6763;48.524;9.044;2022-11-15T15:06:26;3.70;;;2.35;;
13386;SDS011;6763;48.524;9.044;2022-11-15T15:08:52;2.85;;;2.00;;
13386;SDS011;6763;48.524;9.044;2022-11-15T15:11:21;2.42;;;1.92;;
13386;SDS011;6763;48.524;9.044;2022-11-15T15:13:49;3.67;;;1.80;;
13386;SDS011;6763;48.524;9.044;2022-11-15T15:16:18;5.20;;;1.80;;
13386;SDS011;6763;48.524;9.044;2022-11-15T15:18:44;2.88;;;1.85;;
13386;SDS011;6763;48.524;9.044;2022-11-15T15:21:20;3.00;;;2.00;;
13386;SDS011;6763;48.524;9.044;2022-11-15T15:23:46;4.05;;;2.47;;
13386;SDS011;6763;48.524;9.044;2022-11-15T15:26:11;3.15;;;2.63;;
13386;SDS011;6763;48.524;9.044;2022-11-15T15:28:41;3.95;;;2.58;;
13386;SDS011;6763;48.524;9.044;2022-11-15T15:31:07;5.68;;;3.20;;
13386;SDS011;6763;48.524;9.044;2022-11-15T15:33:33;5.75;;;3.22;;
13386;SDS011;6763;48.524;9.044;2022-11-15T15:35:58;5.65;;;2.53;;
13386;SDS011;6763;48.524;9.044;2022-11-15T15:38:24;3.70;;;2.30;;
13386;SDS011;6763;48.524;9.044;2022-11-15T15:40:50;3.00;;;2.03;;
13386;SDS011;6763;48.524;9.044;2022-11-15T15:43:15;5.35;;;2.55;;
13386;SDS011;6763;48.524;9.044;2022-11-15T15:45:41;4.00;;;1.88;;
13386;SDS011;6763;48.524;9.044;2022-11-15T15:48:10;3.03;;;2.30;;
13386;SDS011;6763;48.524;9.044;2022-11-15T15:50:38;2.55;;;2.22;;
13386;SDS011;6763;48.524;9.044;2022-11-15T15:53:04;3.38;;;1.90;;
13386;SDS011;6763;48.524;9.044;2022-11-15T15:55:30;3.22;;;2.20;;
13386;SDS011;6763;48.524;9.044;2022-11-15T15:57:56;3.72;;;2.33;;
13386;SDS011;6763;48.524;9.044;2022-11-15T16:00:23;5.65;;;2.78;;
13386;SDS011;6763;48.524;9.044;2022-11-15T16:02:50;3.40;;;1.85;;
13386;SDS011;6763;48.524;9.044;2022-11-15T16:05:16;3.05;;;2.33;;
13386;SDS011;6763;48.524;9.044;2022-11-15T16:07:42;3.95;;;2.47;;
13386;SDS011;6763;48.524;9.044;2022-11-15T16:10:16;2.25;;;1.92;;
13386;SDS011;6763;48.524;9.044;2022-11-15T16:12:53;2.55;;;2.08;;
13386;SDS011;6763;48.524;9.044;2022-11-15T16:15:19;4.47;;;2.92;;
13386;SDS011;6763;48.524;9.044;2022-11-15T16:17:50;5.40;;;2.60;;
13386;SDS011;6763;48.524;9.044;2022-11-15T16:20:30;4.65;;;2.45;;
13386;SDS011;6763;48.524;9.044;2022-11-15T16:22:56;4.85;;;3.25;;
13386;SDS011;6763;48.524;9.044;2022-11-15T16:25:21;7.85;;;2.47;;
13386;SDS011;6763;48.524;9.044;2022-11-15T16:27:46;3.60;;;2.50;;
13386;SDS011;6763;48.524;9.044;2022-11-15T16:30:14;3.88;;;2.95;;
13386;SDS011;6763;48.524;9.044;2022-11-15T16:32:41;3.33;;;2.63;;
13386;SDS011;6763;48.524;9.044;2022-11-15T16:35:07;2.55;;;2.03;;
13386;SDS011;6763;48.524;9.044;2022-11-15T16:37:36;3.80;;;2.20;;
13386;SDS011;6763;48.524;9.044;2022-11-15T16:40:01;3.85;;;2.42;;
13386;SDS011;6763;48.524;9.044;2022-11-15T16:42:27;7.18;;;2.63;;
13386;SDS011;6763;48.524;9.044;2022-11-15T16:44:52;3.13;;;2.63;;
13386;SDS011;6763;48.524;9.044;2022-11-15T16:47:18;3.75;;;2.60;;
13386;SDS011;6763;48.524;9.044;2022-11-15T16:49:44;2.47;;;2.25;;
13386;SDS011;6763;48.524;9.044;2022-11-15T16:52:09;4.10;;;2.35;;
13386;SDS011;6763;48.524;9.044;2022-11-15T16:54:35;6.45;;;3.35;;
13386;SDS011;6763;48.524;9.044;2022-11-15T16:57:00;8.85;;;5.35;;
13386;SDS011;6763;48.524;9.044;2022-11-15T16:59:26;6.05;;;4.00;;
13386;SDS011;6763;48.524;9.044;2022-11-15T17:01:51;5.53;;;3.90;;
13386;SDS011;6763;48.524;9.044;2022-11-15T17:04:17;5.70;;;3.30;;
13386;SDS011;6763;48.524;9.044;2022-11-15T17:06:44;4.95;;;3.42;;
13386;SDS011;6763;48.524;9.044;2022-11-15T17:09:19;3.63;;;3.20;;
13386;SDS011;6763;48.524;9.044;2022-11-15T17:11:47;3.88;;;3.35;;
13386;SDS011;6763;48.524;9.044;2022-11-15T17:14:13;5.07;;;2.72;;